Okay, ik ben er zelf achter dat het een hitteprobleem is.
, GPU Core Clock [MHz] , GPU Memory Clock [MHz] , GPU Shader Clock [MHz] , GPU Temperature [°C] , PCB Temperature [°C] , Fan Speed [%] , Fan Speed [RPM] , Memory Used [MB] , GPU Load [%] , Memory Controller Load [%] , Video Engine Load [%] ,
2010-01-27 11:35:20 , 400.0 , 300.0 , 800.0 , 62.8 , 47.5 , 40 , - , 67 , 0 , 0 , 0 ,
2010-01-27 11:35:22 , 300.0 , 100.0 , 600.0 , 62.8 , 47.5 , 40 , - , 65 , 1 , 1 , 0 ,
2010-01-27 11:35:23 , 300.0 , 100.0 , 600.0 , 62.8 , 47.5 , 40 , - , 65 , 2 , 3 , 0 ,
2010-01-27 11:35:24 , 300.0 , 100.0 , 600.0 , 62.8 , 47.5 , 40 , - , 65 , 0 , 2 , 0 ,
2010-01-27 11:35:25 , 300.0 , 100.0 , 600.0 , 62.8 , 47.5 , 40 , - , 65 , 0 , 2 , 0 ,
2010-01-27 11:35:26 , 300.0 , 100.0 , 600.0 , 62.8 , 47.5 , 40 , - , 65 , 0 , 2 , 0 ,
2010-01-27 11:35:27 , 300.0 , 100.0 , 600.0 , 62.8 , 47.5 , 40 , - , 65 , 0 , 2 , 0 ,
2010-01-27 11:35:28 , 300.0 , 100.0 , 600.0 , 62.8 , 47.5 , 40 , - , 75 , 0 , 2 , 0 ,
2010-01-27 11:35:29 , 300.0 , 100.0 , 600.0 , 62.8 , 47.5 , 40 , - , 112 , 5 , 3 , 0 ,
2010-01-27 11:35:30 , 576.0 , 1015.0 , 1242.0 , 66.8 , 47.5 , 40 , - , 56 , 18 , 3 , 0 ,
2010-01-27 11:35:31 , 576.0 , 1015.0 , 1242.0 , 67.8 , 47.5 , 40 , - , 56 , 98 , 35 , 0 ,
2010-01-27 11:35:32 , 576.0 , 1015.0 , 1242.0 , 67.8 , 47.5 , 40 , - , 56 , 99 , 37 , 0 ,
2010-01-27 11:35:33 , 576.0 , 1015.0 , 1242.0 , 68.8 , 47.5 , 40 , - , 56 , 99 , 38 , 0 ,
2010-01-27 11:35:34 , 576.0 , 1015.0 , 1242.0 , 68.8 , 47.5 , 40 , - , 56 , 99 , 38 , 0 ,
2010-01-27 11:35:35 , 576.0 , 1015.0 , 1242.0 , 69.8 , 47.5 , 40 , - , 56 , 99 , 38 , 0 ,
2010-01-27 11:35:36 , 576.0 , 1015.0 , 1242.0 , 69.8 , 47.5 , 40 , - , 56 , 99 , 38 , 0 ,
2010-01-27 11:35:37 , 576.0 , 1015.0 , 1242.0 , 69.8 , 47.5 , 40 , - , 56 , 99 , 38 , 0 ,
2010-01-27 11:35:38 , 576.0 , 1015.0 , 1242.0 , 70.8 , 47.5 , 40 , - , 56 , 99 , 38 , 0 ,
2010-01-27 11:35:39 , 576.0 , 1015.0 , 1242.0 , 70.8 , 47.5 , 40 , - , 56 , 99 , 38 , 0 ,
2010-01-27 11:35:40 , 576.0 , 1015.0 , 1242.0 , 70.8 , 47.5 , 40 , - , 56 , 99 , 38 , 0 ,
2010-01-27 11:35:41 , 576.0 , 1015.0 , 1242.0 , 71.8 , 47.5 , 40 , - , 56 , 99 , 38 , 0 ,
2010-01-27 11:35:42 , 576.0 , 1015.0 , 1242.0 , 71.8 , 47.5 , 40 , - , 56 , 99 , 37 , 0 ,
2010-01-27 11:35:43 , 576.0 , 1015.0 , 1242.0 , 71.8 , 47.5 , 40 , - , 56 , 98 , 34 , 0 ,
2010-01-27 11:35:44 , 576.0 , 1015.0 , 1242.0 , 72.8 , 47.5 , 40 , - , 56 , 98 , 31 , 0 ,
2010-01-27 11:35:45 , 576.0 , 1015.0 , 1242.0 , 72.0 , 48.8 , 40 , - , 56 , 98 , 32 , 0 ,
2010-01-27 11:35:46 , 576.0 , 1015.0 , 1242.0 , 72.0 , 48.8 , 40 , - , 56 , 98 , 35 , 0 ,
2010-01-27 11:35:47 , 576.0 , 1015.0 , 1242.0 , 73.0 , 48.8 , 40 , - , 56 , 99 , 37 , 0 ,
2010-01-27 11:35:48 , 576.0 , 1015.0 , 1242.0 , 73.0 , 48.8 , 40 , - , 56 , 99 , 38 , 0 ,
2010-01-27 11:35:49 , 576.0 , 1015.0 , 1242.0 , 73.0 , 48.8 , 40 , - , 56 , 99 , 38 , 0 ,
2010-01-27 11:35:50 , 576.0 , 1015.0 , 1242.0 , 74.0 , 48.8 , 40 , - , 56 , 99 , 38 , 0 ,
2010-01-27 11:35:51 , 576.0 , 1015.0 , 1242.0 , 74.0 , 48.8 , 40 , - , 56 , 99 , 38 , 0 ,
2010-01-27 11:35:52 , 576.0 , 1015.0 , 1242.0 , 74.0 , 48.8 , 41 , - , 56 , 99 , 37 , 0 ,
2010-01-27 11:35:53 , 576.0 , 1015.0 , 1242.0 , 74.0 , 49.8 , 42 , - , 56 , 99 , 36 , 0 ,
2010-01-27 11:35:54 , 576.0 , 1015.0 , 1242.0 , 75.0 , 49.8 , 42 , - , 56 , 99 , 32 , 0 ,
2010-01-27 11:35:55 , 576.0 , 1015.0 , 1242.0 , 75.0 , 49.8 , 43 , - , 56 , 98 , 30 , 0 ,
2010-01-27 11:35:56 , 576.0 , 1015.0 , 1242.0 , 75.0 , 49.8 , 43 , - , 56 , 98 , 31 , 0 ,
2010-01-27 11:35:57 , 576.0 , 1015.0 , 1242.0 , 76.0 , 49.8 , 44 , - , 56 , 99 , 35 , 0 ,
2010-01-27 11:35:58 , 576.0 , 1015.0 , 1242.0 , 76.0 , 49.8 , 45 , - , 56 , 99 , 37 , 0 ,
2010-01-27 11:35:59 , 576.0 , 1015.0 , 1242.0 , 76.0 , 49.8 , 45 , - , 56 , 99 , 38 , 0 ,
2010-01-27 11:36:00 , 576.0 , 1015.0 , 1242.0 , 77.0 , 50.8 , 46 , - , 56 , 99 , 38 , 0 ,
2010-01-27 11:36:01 , 576.0 , 1015.0 , 1242.0 , 77.0 , 50.8 , 46 , - , 56 , 99 , 38 , 0 ,
2010-01-27 11:36:02 , 576.0 , 1015.0 , 1242.0 , 77.0 , 50.8 , 47 , - , 56 , 99 , 38 , 0 ,
2010-01-27 11:36:03 , 576.0 , 1015.0 , 1242.0 , 78.0 , 50.8 , 48 , - , 56 , 99 , 38 , 0 ,
2010-01-27 11:36:04 , 576.0 , 1015.0 , 1242.0 , 78.0 , 50.8 , 48 , - , 56 , 99 , 38 , 0 ,
2010-01-27 11:36:05 , 576.0 , 1015.0 , 1242.0 , 78.0 , 50.8 , 49 , - , 56 , 99 , 38 , 0 ,
2010-01-27 11:36:06 , 576.0 , 1015.0 , 1242.0 , 78.0 , 50.8 , 49 , - , 56 , 99 , 38 , 0 ,
2010-01-27 11:36:07 , 576.0 , 1015.0 , 1242.0 , 79.0 , 50.8 , 50 , - , 56 , 99 , 38 , 0 ,
2010-01-27 11:36:08 , 576.0 , 1015.0 , 1242.0 , 79.0 , 50.8 , 51 , - , 56 , 99 , 37 , 0 ,
2010-01-27 11:36:09 , 576.0 , 1015.0 , 1242.0 , 79.0 , 51.8 , 51 , - , 56 , 98 , 34 , 0 ,
2010-01-27 11:36:10 , 576.0 , 1015.0 , 1242.0 , 80.0 , 51.8 , 52 , - , 56 , 98 , 31 , 0 ,
2010-01-27 11:36:11 , 576.0 , 1015.0 , 1242.0 , 80.0 , 51.8 , 52 , - , 56 , 98 , 32 , 0 ,
2010-01-27 11:36:12 , 576.0 , 1015.0 , 1242.0 , 80.0 , 51.8 , 53 , - , 56 , 98 , 36 , 0 ,
2010-01-27 11:36:13 , 576.0 , 1015.0 , 1242.0 , 81.0 , 51.8 , 54 , - , 56 , 99 , 37 , 0 ,
2010-01-27 11:36:14 , 576.0 , 1015.0 , 1242.0 , 81.3 , 52.8 , 54 , - , 56 , 99 , 38 , 0 ,
2010-01-27 11:36:15 , 576.0 , 1015.0 , 1242.0 , 81.3 , 52.8 , 55 , - , 56 , 99 , 38 , 0 ,
2010-01-27 11:36:16 , 576.0 , 1015.0 , 1242.0 , 81.3 , 52.8 , 55 , - , 56 , 99 , 38 , 0 ,
2010-01-27 11:36:17 , 576.0 , 1015.0 , 1242.0 , 82.3 , 52.8 , 56 , - , 56 , 99 , 38 , 0 ,
2010-01-27 11:36:18 , 576.0 , 1015.0 , 1242.0 , 82.3 , 52.8 , 56 , - , 56 , 99 , 38 , 0 ,
2010-01-27 11:36:19 , 576.0 , 1015.0 , 1242.0 , 82.3 , 52.8 , 56 , - , 56 , 99 , 37 , 0 ,
2010-01-27 11:36:20 , 576.0 , 1015.0 , 1242.0 , 82.3 , 52.8 , 57 , - , 56 , 98 , 35 , 0 ,
2010-01-27 11:36:21 , 576.0 , 1015.0 , 1242.0 , 83.3 , 52.8 , 58 , - , 56 , 98 , 32 , 0 ,
2010-01-27 11:36:22 , 576.0 , 1015.0 , 1242.0 , 83.3 , 53.8 , 58 , - , 56 , 98 , 29 , 0 ,
2010-01-27 11:36:23 , 576.0 , 1015.0 , 1242.0 , 83.3 , 53.8 , 58 , - , 56 , 98 , 31 , 0 ,
2010-01-27 11:36:24 , 576.0 , 1015.0 , 1242.0 , 83.3 , 53.8 , 59 , - , 56 , 99 , 35 , 0 ,
2010-01-27 11:36:25 , 576.0 , 1015.0 , 1242.0 , 84.3 , 53.8 , 60 , - , 56 , 99 , 37 , 0 ,
2010-01-27 11:36:26 , 576.0 , 1015.0 , 1242.0 , 84.3 , 53.8 , 62 , - , 56 , 99 , 38 , 0 ,
2010-01-27 11:36:27 , 576.0 , 1015.0 , 1242.0 , 84.3 , 53.8 , 63 , - , 56 , 99 , 38 , 0 ,
2010-01-27 11:36:28 , 576.0 , 1015.0 , 1242.0 , 84.3 , 53.8 , 65 , - , 56 , 99 , 38 , 0 ,
2010-01-27 11:36:29 , 576.0 , 1015.0 , 1242.0 , 85.3 , 54.8 , 65 , - , 56 , 99 , 38 , 0 ,
2010-01-27 11:36:30 , 576.0 , 1015.0 , 1242.0 , 85.3 , 54.8 , 67 , - , 56 , 99 , 38 , 0 ,
2010-01-27 11:36:31 , 576.0 , 1015.0 , 1242.0 , 85.3 , 54.8 , 69 , - , 56 , 99 , 38 , 0 ,
2010-01-27 11:36:32 , 576.0 , 1015.0 , 1242.0 , 86.3 , 54.8 , 69 , - , 56 , 99 , 38 , 0 ,
2010-01-27 11:36:34 , 576.0 , 1015.0 , 1242.0 , 86.3 , 54.8 , 72 , - , 56 , 99 , 38 , 0 ,
2010-01-27 11:36:35 , 576.0 , 1015.0 , 1242.0 , 86.3 , 54.8 , 73 , - , 56 , 99 , 38 , 0 ,
2010-01-27 11:36:36 , 576.0 , 1015.0 , 1242.0 , 86.3 , 54.8 , 73 , - , 56 , 99 , 37 , 0 ,
2010-01-27 11:36:37 , 576.0 , 1015.0 , 1242.0 , 87.3 , 55.8 , 75 , - , 56 , 98 , 33 , 0 ,
2010-01-27 11:36:38 , 576.0 , 1015.0 , 1242.0 , 87.3 , 55.8 , 76 , - , 56 , 98 , 31 , 0 ,
2010-01-27 11:36:39 , 576.0 , 1015.0 , 1242.0 , 87.3 , 55.8 , 78 , - , 56 , 98 , 32 , 0 ,
2010-01-27 11:36:40 , 576.0 , 1015.0 , 1242.0 , 87.3 , 55.8 , 81 , - , 56 , 98 , 36 , 0 ,
2010-01-27 11:36:41 , 576.0 , 1015.0 , 1242.0 , 88.3 , 55.8 , 84 , - , 56 , 99 , 37 , 0 ,
2010-01-27 11:36:42 , 576.0 , 1015.0 , 1242.0 , 88.3 , 55.8 , 84 , - , 56 , 99 , 38 , 0 ,
2010-01-27 11:36:43 , 576.0 , 1015.0 , 1242.0 , 88.3 , 55.8 , 85 , - , 56 , 99 , 38 , 0 ,
2010-01-27 11:36:44 , 576.0 , 1015.0 , 1242.0 , 89.3 , 55.8 , 87 , - , 56 , 99 , 38 , 0 ,
2010-01-27 11:36:45 , 576.0 , 1015.0 , 1242.0 , 89.5 , 56.8 , 87 , - , 56 , 99 , 38 , 0 ,
2010-01-27 11:36:46 , 576.0 , 1015.0 , 1242.0 , 89.5 , 56.8 , 90 , - , 56 , 99 , 38 , 0 ,
2010-01-27 11:36:47 , 576.0 , 1015.0 , 1242.0 , 89.5 , 56.8 , 91 , - , 56 , 99 , 37 , 0 ,
2010-01-27 11:36:48 , 576.0 , 1015.0 , 1242.0 , 90.5 , 56.8 , 91 , - , 56 , 98 , 35 , 0 ,
2010-01-27 11:36:49 , 576.0 , 1015.0 , 1242.0 , 90.5 , 56.8 , 93 , - , 56 , 98 , 31 , 0 ,
2010-01-27 11:36:50 , 576.0 , 1015.0 , 1242.0 , 90.5 , 57.8 , 94 , - , 56 , 98 , 29 , 0 ,
2010-01-27 11:36:51 , 576.0 , 1015.0 , 1242.0 , 90.5 , 57.8 , 96 , - , 56 , 98 , 32 , 0 ,
2010-01-27 11:36:52 , 576.0 , 1015.0 , 1242.0 , 91.5 , 57.8 , 99 , - , 56 , 99 , 36 , 0 ,
2010-01-27 11:36:53 , 576.0 , 1015.0 , 1242.0 , 91.5 , 57.8 , 100 , - , 56 , 99 , 37 , 0 ,
2010-01-27 11:36:54 , 576.0 , 1015.0 , 1242.0 , 91.5 , 57.8 , 100 , - , 56 , 99 , 38 , 0 ,
2010-01-27 11:36:55 , 576.0 , 1015.0 , 1242.0 , 92.5 , 57.8 , 100 , - , 56 , 99 , 38 , 0 ,
2010-01-27 11:36:56 , 576.0 , 1015.0 , 1242.0 , 92.5 , 57.8 , 100 , - , 56 , 99 , 38 , 0 ,
2010-01-27 11:36:57 , 576.0 , 1015.0 , 1242.0 , 92.5 , 57.8 , 100 , - , 56 , 99 , 38 , 0 ,
2010-01-27 11:36:58 , 576.0 , 1015.0 , 1242.0 , 92.5 , 57.8 , 100 , - , 56 , 99 , 38 , 0 ,
2010-01-27 11:36:59 , 576.0 , 1015.0 , 1242.0 , 92.5 , 58.8 , 100 , - , 56 , 99 , 38 , 0 ,
2010-01-27 11:37:00 , 576.0 , 1015.0 , 1242.0 , 93.5 , 58.8 , 100 , - , 56 , 99 , 38 , 0 ,
2010-01-27 11:37:01 , 576.0 , 1015.0 , 1242.0 , 93.5 , 58.8 , 100 , - , 56 , 99 , 38 , 0 ,
2010-01-27 11:37:02 , 576.0 , 1015.0 , 1242.0 , 93.5 , 58.8 , 100 , - , 56 , 99 , 37 , 0 ,
2010-01-27 11:37:03 , 576.0 , 1015.0 , 1242.0 , 94.5 , 58.8 , 100 , - , 56 , 98 , 33 , 0 ,
2010-01-27 11:37:04 , 576.0 , 1015.0 , 1242.0 , 94.5 , 58.8 , 100 , - , 56 , 98 , 31 , 0 ,
2010-01-27 11:37:05 , 576.0 , 1015.0 , 1242.0 , 94.5 , 58.8 , 100 , - , 56 , 98 , 33 , 0 ,
2010-01-27 11:37:06 , 576.0 , 1015.0 , 1242.0 , 94.5 , 58.8 , 100 , - , 56 , 99 , 36 , 0 ,
2010-01-27 11:37:07 , 576.0 , 1015.0 , 1242.0 , 94.5 , 58.8 , 100 , - , 56 , 99 , 37 , 0 ,
2010-01-27 11:37:08 , 576.0 , 1015.0 , 1242.0 , 95.5 , 59.8 , 100 , - , 56 , 99 , 38 , 0 ,
2010-01-27 11:37:09 , 576.0 , 1015.0 , 1242.0 , 95.5 , 59.8 , 100 , - , 56 , 99 , 38 , 0 ,
2010-01-27 11:37:10 , 576.0 , 1015.0 , 1242.0 , 95.5 , 59.8 , 100 , - , 56 , 99 , 38 , 0 ,
2010-01-27 11:37:11 , 576.0 , 1015.0 , 1242.0 , 96.5 , 59.8 , 100 , - , 56 , 99 , 38 , 0 ,
2010-01-27 11:37:12 , 576.0 , 1015.0 , 1242.0 , 96.5 , 59.8 , 100 , - , 56 , 99 , 38 , 0 ,
2010-01-27 11:37:13 , 576.0 , 1015.0 , 1242.0 , 96.5 , 59.8 , 100 , - , 56 , 99 , 37 , 0 ,
2010-01-27 11:37:14 , 576.0 , 1015.0 , 1242.0 , 96.8 , 60.8 , 100 , - , 56 , 98 , 35 , 0 ,
2010-01-27 11:37:15 , 576.0 , 1015.0 , 1242.0 , 97.8 , 60.8 , 100 , - , 56 , 98 , 31 , 0 ,
2010-01-27 11:37:16 , 576.0 , 1015.0 , 1242.0 , 97.8 , 60.8 , 100 , - , 56 , 91 , 27 , 0 ,
2010-01-27 11:37:17 , 576.0 , 1015.0 , 1242.0 , 97.8 , 60.8 , 100 , - , 56 , 91 , 30 , 0 ,
2010-01-27 11:37:18 , 576.0 , 1015.0 , 1242.0 , 96.8 , 60.8 , 100 , - , 56 , 82 , 30 , 0 ,
2010-01-27 11:37:19 , 576.0 , 1015.0 , 1242.0 , 97.8 , 60.8 , 100 , - , 56 , 80 , 30 , 0 ,
2010-01-27 11:37:20 , 576.0 , 1015.0 , 1242.0 , 97.8 , 60.8 , 100 , - , 56 , 74 , 29 , 0 ,
2010-01-27 11:37:21 , 576.0 , 1015.0 , 1242.0 , 97.8 , 60.8 , 100 , - , 56 , 76 , 29 , 0 ,
2010-01-27 11:37:22 , 576.0 , 1015.0 , 1242.0 , 96.8 , 60.8 , 100 , - , 56 , 73 , 28 , 0 ,
2010-01-27 11:37:23 , 576.0 , 1015.0 , 1242.0 , 97.8 , 61.8 , 100 , - , 56 , 64 , 25 , 0 ,
2010-01-27 11:37:24 , 576.0 , 1015.0 , 1242.0 , 97.8 , 61.8 , 100 , - , 56 , 65 , 25 , 0 ,
2010-01-27 11:37:25 , 576.0 , 1015.0 , 1242.0 , 97.8 , 61.8 , 100 , - , 56 , 58 , 23 , 0 ,
2010-01-27 11:37:26 , 576.0 , 1015.0 , 1242.0 , 97.8 , 61.8 , 100 , - , 56 , 61 , 24 , 0 ,
2010-01-27 11:37:27 , 576.0 , 1015.0 , 1242.0 , 97.8 , 61.8 , 100 , - , 56 , 59 , 23 , 0 ,
2010-01-27 11:37:28 , 576.0 , 1015.0 , 1242.0 , 97.8 , 61.8 , 100 , - , 56 , 49 , 19 , 0 ,
2010-01-27 11:37:29 , 576.0 , 1015.0 , 1242.0 , 97.8 , 61.8 , 100 , - , 56 , 49 , 19 , 0 ,
2010-01-27 11:37:30 , 576.0 , 1015.0 , 1242.0 , 97.8 , 61.8 , 100 , - , 56 , 49 , 17 , 0 ,
2010-01-27 11:37:31 , 576.0 , 1015.0 , 1242.0 , 97.8 , 62.8 , 100 , - , 56 , 49 , 16 , 0 ,
2010-01-27 11:37:32 , 576.0 , 1015.0 , 1242.0 , 97.8 , 62.8 , 100 , - , 56 , 49 , 17 , 0 ,
2010-01-27 11:37:33 , 576.0 , 1015.0 , 1242.0 , 97.8 , 62.8 , 100 , - , 56 , 49 , 19 , 0 ,
2010-01-27 11:37:34 , 576.0 , 1015.0 , 1242.0 , 97.8 , 62.8 , 100 , - , 56 , 49 , 19 , 0 ,
2010-01-27 11:37:35 , 576.0 , 1015.0 , 1242.0 , 98.8 , 62.8 , 100 , - , 56 , 49 , 19 , 0 ,
2010-01-27 11:37:36 , 576.0 , 1015.0 , 1242.0 , 98.8 , 62.8 , 100 , - , 56 , 49 , 19 , 0 ,
2010-01-27 11:37:37 , 576.0 , 1015.0 , 1242.0 , 98.8 , 62.8 , 100 , - , 56 , 49 , 19 , 0 ,
2010-01-27 11:37:38 , 576.0 , 1015.0 , 1242.0 , 98.8 , 62.8 , 100 , - , 56 , 49 , 19 , 0 ,
2010-01-27 11:37:39 , 576.0 , 1015.0 , 1242.0 , 98.8 , 62.8 , 100 , - , 56 , 49 , 19 , 0 ,
2010-01-27 11:37:40 , 576.0 , 1015.0 , 1242.0 , 98.8 , 62.8 , 100 , - , 56 , 49 , 19 , 0 ,
2010-01-27 11:37:41 , 576.0 , 1015.0 , 1242.0 , 98.8 , 62.8 , 100 , - , 56 , 49 , 18 , 0 ,
2010-01-27 11:37:42 , 576.0 , 1015.0 , 1242.0 , 98.8 , 63.8 , 100 , - , 56 , 49 , 16 , 0 ,
2010-01-27 11:37:43 , 576.0 , 1015.0 , 1242.0 , 98.8 , 63.8 , 100 , - , 56 , 49 , 15 , 0 ,
2010-01-27 11:37:44 , 576.0 , 1015.0 , 1242.0 , 99.8 , 63.8 , 100 , - , 56 , 49 , 17 , 0 ,
2010-01-27 11:37:45 , 576.0 , 1015.0 , 1242.0 , 99.8 , 63.8 , 100 , - , 56 , 49 , 18 , 0 ,
2010-01-27 11:37:47 , 576.0 , 1015.0 , 1242.0 , 99.8 , 63.8 , 100 , - , 56 , 49 , 19 , 0 ,
2010-01-27 11:37:48 , 576.0 , 1015.0 , 1242.0 , 99.8 , 63.8 , 100 , - , 56 , 49 , 19 , 0 ,
2010-01-27 11:37:49 , 576.0 , 1015.0 , 1242.0 , 99.8 , 63.8 , 100 , - , 56 , 49 , 19 , 0 ,
2010-01-27 11:37:50 , 576.0 , 1015.0 , 1242.0 , 99.8 , 63.8 , 100 , - , 56 , 49 , 20 , 0 ,
2010-01-27 11:37:51 , 576.0 , 1015.0 , 1242.0 , 99.8 , 63.8 , 100 , - , 56 , 49 , 20 , 0 ,
2010-01-27 11:37:52 , 576.0 , 1015.0 , 1242.0 , 99.8 , 63.8 , 100 , - , 56 , 49 , 20 , 0 ,
2010-01-27 11:37:53 , 576.0 , 1015.0 , 1242.0 , 99.8 , 63.8 , 100 , - , 56 , 49 , 19 , 0 ,
2010-01-27 11:37:54 , 576.0 , 1015.0 , 1242.0 , 99.8 , 63.8 , 100 , - , 56 , 49 , 19 , 0 ,
2010-01-27 11:37:55 , 576.0 , 1015.0 , 1242.0 , 100.8 , 63.8 , 100 , - , 56 , 49 , 19 , 0 ,
2010-01-27 11:37:56 , 576.0 , 1015.0 , 1242.0 , 100.8 , 63.8 , 100 , - , 56 , 49 , 19 , 0 ,
2010-01-27 11:37:57 , 576.0 , 1015.0 , 1242.0 , 100.8 , 63.8 , 100 , - , 56 , 49 , 19 , 0 ,
2010-01-27 11:37:58 , 576.0 , 1015.0 , 1242.0 , 100.8 , 63.8 , 100 , - , 56 , 49 , 17 , 0 ,
2010-01-27 11:37:59 , 576.0 , 1015.0 , 1242.0 , 100.0 , 64.0 , 100 , - , 56 , 49 , 16 , 0 ,
2010-01-27 11:38:00 , 576.0 , 1015.0 , 1242.0 , 100.0 , 64.0 , 100 , - , 56 , 49 , 17 , 0 ,
2010-01-27 11:38:01 , 576.0 , 1015.0 , 1242.0 , 100.0 , 64.0 , 100 , - , 56 , 49 , 19 , 0 ,
2010-01-27 11:38:02 , 576.0 , 1015.0 , 1242.0 , 100.0 , 64.0 , 100 , - , 56 , 49 , 19 , 0 ,
2010-01-27 11:38:03 , 576.0 , 1015.0 , 1242.0 , 100.0 , 64.0 , 100 , - , 56 , 49 , 19 , 0 ,
2010-01-27 11:38:04 , 576.0 , 1015.0 , 1242.0 , 101.0 , 64.0 , 100 , - , 56 , 49 , 19 , 0 ,
2010-01-27 11:38:05 , 576.0 , 1015.0 , 1242.0 , 101.0 , 64.0 , 100 , - , 56 , 49 , 19 , 0 ,
2010-01-27 11:38:06 , 576.0 , 1015.0 , 1242.0 , 101.0 , 64.0 , 100 , - , 56 , 49 , 19 , 0 ,
2010-01-27 11:38:07 , 576.0 , 1015.0 , 1242.0 , 101.0 , 64.0 , 100 , - , 56 , 49 , 19 , 0 ,
2010-01-27 11:38:08 , 576.0 , 1015.0 , 1242.0 , 101.0 , 64.0 , 100 , - , 56 , 49 , 19 , 0 ,
2010-01-27 11:38:09 , 576.0 , 1015.0 , 1242.0 , 101.0 , 64.0 , 100 , - , 56 , 49 , 18 , 0 ,
2010-01-27 11:38:10 , 576.0 , 1015.0 , 1242.0 , 101.0 , 64.0 , 100 , - , 56 , 49 , 16 , 0 ,
2010-01-27 11:38:11 , 576.0 , 1015.0 , 1242.0 , 101.0 , 64.0 , 100 , - , 56 , 49 , 15 , 0 ,
2010-01-27 11:38:12 , 576.0 , 1015.0 , 1242.0 , 101.0 , 64.0 , 100 , - , 56 , 49 , 17 , 0 ,
2010-01-27 11:38:13 , 576.0 , 1015.0 , 1242.0 , 102.0 , 64.0 , 100 , - , 56 , 49 , 19 , 0 ,
2010-01-27 11:38:14 , 576.0 , 1015.0 , 1242.0 , 101.0 , 64.0 , 100 , - , 56 , 49 , 19 , 0 ,
2010-01-27 11:38:15 , 576.0 , 1015.0 , 1242.0 , 102.0 , 65.0 , 100 , - , 56 , 49 , 19 , 0 ,
2010-01-27 11:38:16 , 576.0 , 1015.0 , 1242.0 , 102.0 , 65.0 , 100 , - , 56 , 49 , 20 , 0 ,
2010-01-27 11:38:17 , 576.0 , 1015.0 , 1242.0 , 102.0 , 65.0 , 100 , - , 56 , 49 , 20 , 0 ,
2010-01-27 11:38:18 , 576.0 , 1015.0 , 1242.0 , 102.0 , 65.0 , 100 , - , 56 , 49 , 19 , 0 ,
2010-01-27 11:38:19 , 576.0 , 1015.0 , 1242.0 , 102.0 , 65.0 , 100 , - , 56 , 49 , 19 , 0 ,
2010-01-27 11:38:20 , 576.0 , 1015.0 , 1242.0 , 102.0 , 65.0 , 100 , - , 56 , 49 , 19 , 0 ,
2010-01-27 11:38:21 , 576.0 , 1015.0 , 1242.0 , 102.0 , 65.0 , 100 , - , 56 , 49 , 19 , 0 ,
2010-01-27 11:38:22 , 576.0 , 1015.0 , 1242.0 , 102.0 , 65.0 , 100 , - , 56 , 49 , 19 , 0 ,
2010-01-27 11:38:23 , 576.0 , 1015.0 , 1242.0 , 102.0 , 65.0 , 100 , - , 56 , 49 , 18 , 0 ,
2010-01-27 11:38:24 , 576.0 , 1015.0 , 1242.0 , 102.0 , 65.0 , 100 , - , 56 , 49 , 16 , 0 ,
2010-01-27 11:38:25 , 576.0 , 1015.0 , 1242.0 , 103.0 , 65.0 , 100 , - , 56 , 49 , 16 , 0 ,
2010-01-27 11:38:26 , 576.0 , 1015.0 , 1242.0 , 103.0 , 65.0 , 100 , - , 56 , 49 , 17 , 0 ,
2010-01-27 11:38:27 , 576.0 , 1015.0 , 1242.0 , 103.0 , 65.0 , 100 , - , 56 , 49 , 19 , 0 ,
2010-01-27 11:38:28 , 576.0 , 1015.0 , 1242.0 , 103.0 , 65.0 , 100 , - , 56 , 49 , 19 , 0 ,
2010-01-27 11:38:29 , 576.0 , 1015.0 , 1242.0 , 103.0 , 65.0 , 100 , - , 56 , 49 , 19 , 0 ,
2010-01-27 11:38:30 , 576.0 , 1015.0 , 1242.0 , 103.0 , 65.0 , 100 , - , 56 , 49 , 19 , 0 ,
2010-01-27 11:38:31 , 576.0 , 1015.0 , 1242.0 , 103.0 , 65.0 , 100 , - , 56 , 49 , 19 , 0 ,
2010-01-27 11:38:32 , 576.0 , 1015.0 , 1242.0 , 103.0 , 66.0 , 100 , - , 56 , 49 , 19 , 0 ,
2010-01-27 11:38:33 , 576.0 , 1015.0 , 1242.0 , 103.0 , 66.0 , 100 , - , 56 , 49 , 19 , 0 ,
2010-01-27 11:38:34 , 576.0 , 1015.0 , 1242.0 , 104.0 , 66.0 , 100 , - , 56 , 49 , 19 , 0 ,
2010-01-27 11:38:35 , 576.0 , 1015.0 , 1242.0 , 104.0 , 66.0 , 100 , - , 56 , 49 , 18 , 0 ,
2010-01-27 11:38:36 , 576.0 , 1015.0 , 1242.0 , 104.0 , 66.0 , 100 , - , 56 , 49 , 16 , 0 ,
2010-01-27 11:38:37 , 576.0 , 1015.0 , 1242.0 , 104.0 , 66.0 , 100 , - , 56 , 49 , 15 , 0 ,
2010-01-27 11:38:38 , 576.0 , 1015.0 , 1242.0 , 104.0 , 66.0 , 100 , - , 56 , 49 , 17 , 0 ,
2010-01-27 11:38:39 , 576.0 , 1015.0 , 1242.0 , 104.0 , 66.0 , 100 , - , 56 , 49 , 19 , 0 ,
2010-01-27 11:38:40 , 576.0 , 1015.0 , 1242.0 , 104.0 , 66.0 , 100 , - , 56 , 49 , 19 , 0 ,
2010-01-27 11:38:41 , 576.0 , 1015.0 , 1242.0 , 104.0 , 66.0 , 100 , - , 56 , 49 , 19 , 0 ,
2010-01-27 11:38:42 , 576.0 , 1015.0 , 1242.0 , 104.0 , 66.0 , 100 , - , 56 , 49 , 19 , 0 ,
2010-01-27 11:38:43 , 576.0 , 1015.0 , 1242.0 , 104.0 , 66.0 , 100 , - , 56 , 49 , 20 , 0 ,
2010-01-27 11:38:44 , 576.0 , 1015.0 , 1242.0 , 104.0 , 66.0 , 100 , - , 56 , 49 , 20 , 0 ,
2010-01-27 11:38:45 , 576.0 , 1015.0 , 1242.0 , 105.0 , 66.0 , 100 , - , 56 , 49 , 19 , 0 ,
2010-01-27 11:38:46 , 576.0 , 1015.0 , 1242.0 , 105.0 , 66.0 , 100 , - , 56 , 49 , 19 , 0 ,
2010-01-27 11:38:47 , 576.0 , 1015.0 , 1242.0 , 105.0 , 66.0 , 100 , - , 56 , 49 , 19 , 0 ,
2010-01-27 11:38:48 , 576.0 , 1015.0 , 1242.0 , 105.0 , 66.0 , 100 , - , 56 , 49 , 19 , 0 ,
2010-01-27 11:38:49 , 576.0 , 1015.0 , 1242.0 , 105.0 , 66.0 , 100 , - , 56 , 49 , 19 , 0 ,
2010-01-27 11:38:50 , 576.0 , 1015.0 , 1242.0 , 105.0 , 66.0 , 100 , - , 56 , 49 , 18 , 0 ,
2010-01-27 11:38:51 , 576.0 , 1015.0 , 1242.0 , 105.0 , 67.0 , 100 , - , 56 , 49 , 16 , 0 ,
2010-01-27 11:38:52 , 576.0 , 1015.0 , 1242.0 , 105.0 , 67.0 , 100 , - , 56 , 49 , 16 , 0 ,
2010-01-27 11:38:53 , 576.0 , 1015.0 , 1242.0 , 105.0 , 67.0 , 100 , - , 56 , 49 , 17 , 0 ,
2010-01-27 11:38:54 , 576.0 , 1015.0 , 1242.0 , 105.0 , 67.0 , 100 , - , 56 , 49 , 19 , 0 ,
2010-01-27 11:38:55 , 576.0 , 1015.0 , 1242.0 , 106.0 , 67.0 , 100 , - , 56 , 49 , 19 , 0 ,
2010-01-27 11:38:56 , 576.0 , 1015.0 , 1242.0 , 106.0 , 67.0 , 100 , - , 56 , 49 , 19 , 0 ,
2010-01-27 11:38:57 , 576.0 , 1015.0 , 1242.0 , 106.0 , 67.0 , 100 , - , 56 , 49 , 19 , 0 ,
2010-01-27 11:38:59 , 576.0 , 1015.0 , 1242.0 , 106.0 , 67.0 , 100 , - , 56 , 49 , 19 , 0 ,
2010-01-27 11:39:00 , 576.0 , 1015.0 , 1242.0 , 106.0 , 67.0 , 100 , - , 56 , 49 , 19 , 0 ,
2010-01-27 11:39:01 , 576.0 , 1015.0 , 1242.0 , 106.0 , 67.0 , 100 , - , 56 , 49 , 19 , 0 ,
2010-01-27 11:39:02 , 576.0 , 1015.0 , 1242.0 , 106.0 , 67.0 , 100 , - , 56 , 49 , 19 , 0 ,
2010-01-27 11:39:03 , 576.0 , 1015.0 , 1242.0 , 106.0 , 67.0 , 100 , - , 56 , 49 , 18 , 0 ,
2010-01-27 11:39:04 , 576.0 , 1015.0 , 1242.0 , 106.0 , 67.0 , 100 , - , 56 , 49 , 16 , 0 ,
2010-01-27 11:39:05 , 576.0 , 1015.0 , 1242.0 , 106.3 , 68.0 , 100 , - , 56 , 49 , 15 , 0 ,
2010-01-27 11:39:06 , 576.0 , 1015.0 , 1242.0 , 106.0 , 67.0 , 100 , - , 56 , 49 , 17 , 0 ,
2010-01-27 11:39:07 , 576.0 , 1015.0 , 1242.0 , 107.3 , 68.0 , 100 , - , 56 , 49 , 19 , 0 ,
2010-01-27 11:39:08 , 576.0 , 1015.0 , 1242.0 , 106.0 , 67.0 , 100 , - , 56 , 49 , 19 , 0 ,
2010-01-27 11:39:09 , 576.0 , 1015.0 , 1242.0 , 107.3 , 68.0 , 100 , - , 56 , 49 , 19 , 0 ,
2010-01-27 11:39:10 , 576.0 , 1015.0 , 1242.0 , 107.3 , 68.0 , 100 , - , 56 , 49 , 19 , 0 ,
2010-01-27 11:39:11 , 576.0 , 1015.0 , 1242.0 , 107.3 , 68.0 , 100 ,
Van 60 naar 107 graden binnen vier minuten met Furmark.
Zijn stock coolers dan echt zo slecht?
Axel